Lake City, CO (81235)

1:52 PM MDT on August 29, 2016 (GMT -0600)
Lake City Heights | | Change Station

Elev 8858 ft 38.02 °N, 107.31 °W | Updated 1 second ago

Mostly Cloudy
Mostly Cloudy
54.0 °F
Feels Like 54.0 °F
N
0.0
Wind Variable Wind from SW
Gusts 0.0 mph

Today
High -- | Low -- °F
--% Chance of Precip.
Yesterday
High -- | Low -- °F
Precip. -- in
Pressure 30.53 in
Visibility 10.0 miles
Clouds Mostly Cloudy 6000 ft
Mostly Cloudy 7000 ft
Mostly Cloudy 8000 ft
Dew Point 34 °F
Humidity 47%
Rainfall 0.00 in
Snow Depth Not available.
6:37 AM 7:42 PM
Waning Crescent, 7% visible
METAR KTEX 291915Z AUTO 00000KT 10SM VCTS BKN060 BKN070 BKN080 16/04 A3053 RMK AO2 LTG DSNT NE THRU SE T01550039
Pressure 30.53 in
Visibility 10.0 miles
Clouds Mostly Cloudy 6000 ft
Mostly Cloudy 7000 ft
Mostly Cloudy 8000 ft
Dew Point 34 °F
Humidity 47%
Rainfall 0.00 in
Snow Depth Not available.
6:37 AM 7:42 PM
Waning Crescent, 7% visible
METAR KTEX 291915Z AUTO 00000KT 10SM VCTS BKN060 BKN070 BKN080 16/04 A3053 RMK AO2 LTG DSNT NE THRU SE T01550039

10-Day Weather Forecast

Almanac

Astronomy

Aug. 29, 2016 Rise Set
Actual Time
Civil Twilight
Nautical Twilight
Astronomical Twilight
Moon
Length of Visible Light
Length of Day
Tomorrow will be .
, % of the Moon is Illuminated

Today's Extremes

State Highs State Lows

Community

WunderPhotos

Upload Photos

1,935,642 photos uploaded!

WunderBlog® & News

Nearby

Air Quality

  Air Quality AQ Index Pollutant
Not available.

Snow Depth

Station Depth Elevation

Earthquake Activity

City Distance Mag. Time & Date
Minimum magnitude displayed is 2.5.

Coastal Water Temperatures

Place Temperature

Stations

Nearby Weather Stations

Station Location Temp. Windchill Dew Point Humidity Wind Precip. Elev Updated Type
                   

Watches & Warnings

There are currently no watches in effect.